M I D A S
Marine Information and Data Acquisition System
Tripno 451 of the Zeeleeuw from 2003-03-27 07:26:41 to 2003-03-27 16:33:47
Back to CruiseResearch ActivitiesStationsMapUnderway DataData graphs

EquipmentUnitsComment
TimeDGPSUTC
LatitudeDGPSDM.mWGS84
LongitudeDGPSDM.mWGS84
TemperatureSBE03/SBE38deg celciusITS90
ConductivitySBE21S/mITS90
SalinitySBE21 Practical Salinity Units
ChlorophylAChelsea fluorimeterg/lCalibrated in Aceton
Missing or incorrect values are displayed as -999
Sea surface data collected by the RV Zeeleeuw from 2003-03-27 07:26:41 to 2003-03-27 16:33:47
Time Latitude Longitude Temperature Conductivity Salinity ChlorophylA
2003-03-27 07:27:44 51°13.599 2°56.104 15.427336 3.25626 21.941762 -0.848668
2003-03-27 07:28:44 51°13.598 2°56.103 15.429973 3.25605 21.941943 -0.848668
2003-03-27 07:29:45 51°13.605 2°56.073 15.451671 3.255839 21.942124 -0.848668
2003-03-27 07:30:45 51°13.625 2°55.98 15.444669 3.255523 21.941172 -0.848668
2003-03-27 07:31:45 51°13.662 2°55.87 15.437408 3.255313 21.941353 -0.848668
2003-03-27 07:32:44 51°13.68 2°55.83 15.457245 3.255102 21.941534 -0.848668
2003-03-27 07:33:45 51°13.687 2°55.785 15.458628 3.254892 21.941016 -0.848668
2003-03-27 07:34:44 51°13.687 2°55.74 15.454048 3.254681 21.940847 -0.848668
2003-03-27 07:35:44 51°13.698 2°55.746 15.458715 3.25447 21.941028 -0.848668
2003-03-27 07:36:44 51°13.732 2°55.735 15.455431 3.25426 21.941209 -0.848668
2003-03-27 07:37:44 51°13.79 2°55.674 15.488308 3.254049 21.940691 -0.882377
2003-03-27 07:38:44 51°13.873 2°55.606 15.484853 3.253839 21.941572 -0.848668
2003-03-27 07:39:44 51°13.968 2°55.544 -999 3.253628 21.941054 -0.882377
2003-03-27 07:40:44 51°14.064 2°55.479 -999 3.253312 21.940801 -0.814958
2003-03-27 07:41:44 51°14.154 2°55.399 10.566016 3.173985 24.877776 30.871879
2003-03-27 07:42:44 51°14.238 2°55.3 10.433316 2.944564 27.035403 23.051298
2003-03-27 07:43:44 51°14.307 2°55.167 9.960891 2.845016 26.274622 21.028734
2003-03-27 07:44:44 51°14.367 2°55.035 10.155409 2.923837 27.261604 20.792768
2003-03-27 07:45:44 51°14.447 2°54.895 9.714605 2.979513 27.926592 22.781623
2003-03-27 07:46:44 51°14.527 2°54.672 9.595359 3.0932 29.237551 21.938888
2003-03-27 07:47:44 51°14.608 2°54.433 9.347826 3.155212 29.990751 18.365691
2003-03-27 07:48:44 51°14.691 2°54.192 9.31219 3.157003 30.068581 16.140871
2003-03-27 07:49:44 51°14.783 2°53.918 9.439951 3.15574 30.088464 14.859913
2003-03-27 07:50:44 51°14.872 2°53.637 7.954616 3.155319 30.104263 14.994751
2003-03-27 07:51:44 51°14.962 2°53.356 7.860879 3.155635 30.155426 14.826204
2003-03-27 07:52:44 51°15.052 2°53.075 7.675911 3.161953 30.254996 12.80364
2003-03-27 07:53:44 51°15.142 2°52.797 8.020224 3.161953 30.281271 10.882204
2003-03-27 07:54:44 51°15.231 2°52.507 7.852734 3.164796 30.330419 10.376563
2003-03-27 07:55:44 51°15.319 2°52.229 7.770695 3.165428 30.341513 10.612529
2003-03-27 07:56:44 51°15.421 2°51.956 7.860734 3.162585 30.319418 10.140597
2003-03-27 07:57:44 51°15.539 2°51.671 8.379247 3.169535 30.419591 10.410272
2003-03-27 07:58:44 51°15.668 2°51.395 7.546163 3.164797 30.406772 9.331571
2003-03-27 07:59:44 51°15.801 2°51.123 7.619586 3.157743 30.366343 8.792221
2003-03-27 08:00:44 51°15.937 2°50.853 7.976735 3.155006 30.343104 9.702375
2003-03-27 08:01:44 51°16.072 2°50.583 7.907402 3.154795 30.352637 9.500118
2003-03-27 08:02:44 51°16.205 2°50.315 7.550645 3.155007 30.471672 13.241862
2003-03-27 08:03:44 51°16.34 2°50.046 7.486847 3.14848 30.482867 11.11817
2003-03-27 08:04:44 51°16.484 2°49.792 7.506446 3.155009 30.578944 13.511537
2003-03-27 08:05:44 51°16.636 2°49.544 7.545578 3.156483 30.629954 13.747503
2003-03-27 08:06:45 51°16.792 2°49.29 7.274087 3.153956 30.614068 12.635093
2003-03-27 08:07:44 51°16.942 2°49.037 7.509761 3.151851 30.627462 13.713794
2003-03-27 08:08:44 51°17.097 2°48.779 7.439628 3.15143 30.663544 17.624084
2003-03-27 08:09:44 51°17.261 2°48.536 6.845886 3.145851 30.65694 25.478375
2003-03-27 08:10:44 51°17.422 2°48.295 6.816425 3.153116 30.795909 22.882751
2003-03-27 08:11:44 51°17.576 2°48.038 6.796169 3.152905 30.773144 18.3994
2003-03-27 08:12:44 51°17.712 2°47.76 6.735215 3.165014 30.956585 19.781486
2003-03-27 08:13:44 51°17.824 2°47.456 6.782366 3.159329 30.898103 12.938477
2003-03-27 08:14:44 51°17.869 2°47.117 6.703975 3.181124 31.163341 16.74764
2003-03-27 08:15:44 51°17.9 2°46.779 6.707628 3.187547 31.250767 17.354409
2003-03-27 08:16:44 51°17.94 2°46.436 6.70901 3.181019 31.178384 15.736358
2003-03-27 08:17:44 51°17.981 2°46.092 6.741925 3.173333 31.090395 12.365418
2003-03-27 08:18:44 51°18.024 2°45.747 6.757858 3.181229 31.147545 10.781076
2003-03-27 08:19:44 51°18.049 2°45.461 6.766587 3.173332 31.046637 8.927059
2003-03-27 08:20:44 51°18.048 2°45.228 6.780936 3.168594 30.991511 7.780939
2003-03-27 08:21:44 51°18.111 2°45.137 6.786014 3.166172 30.954601 7.14046
2003-03-27 08:22:44 51°18.158 2°45.117 6.785916 3.16375 30.926112 7.342717
2003-03-27 08:23:44 51°18.175 2°45.119 6.778717 3.165435 30.9451 8.657383
2003-03-27 08:24:44 51°18.191 2°45.12 6.761803 3.169752 31.004814 10.073178
2003-03-27 08:25:44 51°18.207 2°45.119 6.764023 3.171226 31.027666 10.039469
2003-03-27 08:26:44 51°18.231 2°45.115 6.790008 3.168489 30.984253 8.893349
2003-03-27 08:27:44 51°18.263 2°45.11 6.796859 3.163119 30.916227 8.151742
2003-03-27 08:28:44 51°18.3 2°45.11 6.793162 3.162487 30.907106 7.646101
2003-03-27 08:29:44 51°18.342 2°45.111 6.799669 3.162066 30.900265 7.073042
2003-03-27 08:30:44 51°18.39 2°45.116 6.800113 3.163224 30.914315 7.275298
2003-03-27 08:31:44 51°18.441 2°45.139 6.796514 3.160802 30.884317 6.702238
2003-03-27 08:32:44 51°18.487 2°45.184 6.794543 3.162697 30.904809 6.702238
2003-03-27 08:33:44 51°18.534 2°45.233 6.793508 3.163329 30.916216 7.241589
2003-03-27 08:34:44 51°18.574 2°45.287 6.801345 3.163329 30.911641 7.039332
2003-03-27 08:35:44 51°18.614 2°45.334 6.800507 3.164277 30.93257 7.207879
2003-03-27 08:36:44 51°18.655 2°45.379 6.806224 3.161329 30.886961 5.657247
2003-03-27 08:37:44 51°18.697 2°45.422 6.809723 3.161644 30.887329 5.522409
2003-03-27 08:38:45 51°18.74 2°45.471 6.803612 3.162382 30.900632 6.769657
2003-03-27 08:39:45 51°18.78 2°45.528 6.805682 3.162276 30.897207 6.466272
2003-03-27 08:40:45 51°18.816 2°45.588 6.81613 3.159855 30.866458 5.4887
2003-03-27 08:41:45 51°18.849 2°45.648 6.819333 3.157328 30.833822 5.252734
2003-03-27 08:42:45 51°18.876 2°45.716 6.810315 3.159644 30.858855 5.117896
2003-03-27 08:43:45 51°18.906 2°45.784 6.809723 3.162066 30.895692 5.219024
2003-03-27 08:44:45 51°18.941 2°45.851 6.822387 3.160486 30.871764 5.050477
2003-03-27 08:45:45 51°18.98 2°45.91 6.824605 3.159012 30.845183 4.747093
2003-03-27 08:46:45 51°19.019 2°45.957 6.826033 3.159328 30.849357 4.612255
2003-03-27 08:47:45 51°19.056 2°46.004 6.819135 3.158275 30.8357 4.747093
2003-03-27 08:48:45 51°19.093 2°46.052 6.812976 3.160907 30.87251 6.264016
2003-03-27 08:49:45 51°19.14 2°46.088 6.821698 3.15996 30.862268 6.02805
2003-03-27 08:50:45 51°19.184 2°46.129 6.81746 3.159117 30.851644 5.825794
2003-03-27 08:51:45 51°19.229 2°46.169 6.813518 3.159539 30.856956 5.758375
2003-03-27 08:52:45 51°19.269 2°46.216 6.807308 3.158802 30.848231 5.724665
2003-03-27 08:53:45 51°19.308 2°46.269 6.791881 3.162276 30.898731 6.533691
2003-03-27 08:54:45 51°19.346 2°46.325 6.805633 3.160908 30.890789 5.690956
2003-03-27 08:55:45 51°19.382 2°46.386 6.826773 3.15459 30.805761 4.645965
2003-03-27 08:56:45 51°19.416 2°46.449 6.831699 3.155116 30.7993 4.275161
2003-03-27 08:57:45 51°19.452 2°46.504 6.835197 3.154063 30.785652 4.039195
2003-03-27 08:58:45 51°19.49 2°46.56 6.837315 3.153853 30.778827 3.735811
2003-03-27 08:59:45 51°19.531 2°46.612 6.838005 3.154906 30.787163 3.80323
2003-03-27 09:00:45 51°19.572 2°46.663 6.835936 3.155537 30.79626 3.870648
2003-03-27 09:01:45 51°19.613 2°46.712 6.841601 3.155643 30.798915 4.106614
2003-03-27 09:02:45 51°19.65 2°46.77 6.826575 3.15638 30.806874 4.612255
2003-03-27 09:03:45 51°19.677 2°46.822 6.830714 3.159854 30.858087 5.45499
2003-03-27 09:04:45 51°19.692 2°46.877 6.844211 3.1548 30.789818 4.140324
2003-03-27 09:05:45 51°19.703 2°46.932 6.836379 3.154274 30.778825 3.80323
2003-03-27 09:06:45 51°19.708 2°46.996 6.832192 3.157643 30.824317 4.612255
2003-03-27 09:07:45 51°19.706 2°47.07 6.838202 3.155959 30.803844 4.275161
2003-03-27 09:08:45 51°19.684 2°47.137 6.820909 3.155853 30.805743 4.207742
2003-03-27 09:09:45 51°19.647 2°47.163 6.813814 3.157117 30.833067 5.084187
2003-03-27 09:10:45 51°19.609 2°47.15 6.819283 3.157538 30.835338 4.376289
2003-03-27 09:11:45 51°19.575 2°47.138 6.81539 3.154169 30.798174 3.735811
2003-03-27 09:12:45 51°19.54 2°47.128 6.818199 3.153642 30.794004 3.533554
2003-03-27 09:13:45 51°19.506 2°47.126 6.860069 3.154064 30.797795 3.600973
2003-03-27 09:14:45 51°19.474 2°47.127 6.822782 3.15459 30.801205 3.499845
2003-03-27 09:15:45 51°19.44 2°47.123 6.823373 3.156169 30.81523 3.634683
2003-03-27 09:16:45 51°19.404 2°47.114 6.823225 3.157749 30.832293 3.836939
2003-03-27 09:17:45 51°19.371 2°47.101 6.817854 3.156696 30.822437 3.668392
2003-03-27 09:18:45 51°19.343 2°47.092 6.820269 3.155643 30.81334 3.668392
2003-03-27 09:19:45 51°19.31 2°47.076 6.820121 3.158275 30.841781 3.971777
2003-03-27 09:20:45 51°19.28 2°47.047 6.818298 3.161434 30.880484 4.443708
2003-03-27 09:21:45 51°19.254 2°47.015 6.816918 3.163224 30.896785 4.713383
2003-03-27 09:22:45 51°19.234 2°46.973 6.817756 3.164382 30.91159 5.219024
2003-03-27 09:23:45 51°19.221 2°46.925 6.82155 3.166382 30.930167 5.219024
2003-03-27 09:24:45 51°19.22 2°46.87 6.820269 3.168699 30.950631 5.050477
2003-03-27 09:25:45 51°19.223 2°46.811 6.824309 3.169962 30.968106 5.623537
2003-03-27 09:26:45 51°19.232 2°46.754 6.832143 3.170699 30.969203 5.050477
2003-03-27 09:27:45 51°19.254 2°46.699 6.837118 3.17091 30.965374 4.780802
2003-03-27 09:28:45 51°19.281 2°46.651 6.836034 3.172279 30.976352 4.747093
2003-03-27 09:29:45 51°19.315 2°46.609 6.835739 3.173647 30.990381 4.91564
2003-03-27 09:30:45 51°19.354 2°46.576 6.838793 3.174911 31.006328 5.320153
2003-03-27 09:31:45 51°19.397 2°46.549 6.836823 3.17449 30.999485 5.45499
2003-03-27 09:32:45 51°19.443 2°46.531 6.838891 3.173963 30.994559 5.286443
2003-03-27 09:33:45 51°19.491 2°46.519 6.837167 3.173542 30.990007 5.522409
2003-03-27 09:34:45 51°19.538 2°46.515 6.837315 3.172805 30.981278 5.690956
2003-03-27 09:35:45 51°19.589 2°46.512 6.822289 3.172068 30.969498 5.387571
2003-03-27 09:36:45 51°19.637 2°46.517 6.821599 3.175438 31.029605 6.061759
2003-03-27 09:37:45 51°19.682 2°46.525 6.829926 3.172279 30.987804 5.623537
2003-03-27 09:38:45 51°19.719 2°46.533 6.834212 3.170594 30.962723 5.45499
2003-03-27 09:39:45 51°19.751 2°46.539 6.831847 3.171331 30.970689 5.960631
2003-03-27 09:40:45 51°19.803 2°46.522 6.797204 3.171226 30.970314 6.061759
2003-03-27 09:41:45 51°19.835 2°46.394 6.83234 3.171436 30.980989 5.589828
2003-03-27 09:42:45 51°19.764 2°46.161 6.828398 3.172068 30.987055 5.522409
2003-03-27 09:43:45 51°19.667 2°45.877 6.790698 3.173542 30.995352 6.499982
2003-03-27 09:44:45 51°19.56 2°45.575 6.758499 3.220926 31.547772 10.882204
2003-03-27 09:45:45 51°19.472 2°45.254 6.736498 3.234089 31.72662 14.387982
2003-03-27 09:46:45 51°19.391 2°44.925 6.752827 3.231562 31.69916 12.028324
2003-03-27 09:47:45 51°19.309 2°44.593 6.769595 3.226718 31.636372 10.208016
2003-03-27 09:48:45 51°19.227 2°44.262 6.782613 3.219663 31.545744 8.960768
2003-03-27 09:49:45 51°19.144 2°43.934 6.759979 3.231878 31.682235 12.129452
2003-03-27 09:50:45 51°19.064 2°43.607 6.769299 3.226929 31.632408 11.11817
2003-03-27 09:51:45 51°18.984 2°43.278 6.812483 3.219663 31.548081 11.151879
2003-03-27 09:52:45 51°18.904 2°42.947 6.768609 3.223032 31.58465 12.264289
2003-03-27 09:53:45 51°18.825 2°42.619 6.758844 3.22398 31.596496 13.275571
2003-03-27 09:54:45 51°18.746 2°42.289 6.791289 3.229035 31.66153 13.949759
2003-03-27 09:55:45 51°18.667 2°41.959 6.744391 3.234089 31.724268 15.567811
2003-03-27 09:56:45 51°18.586 2°41.631 6.790599 3.234827 31.735415 16.073452
2003-03-27 09:57:45 51°18.499 2°41.307 6.863713 3.283057 32.17029 23.051298
2003-03-27 09:58:45 51°18.413 2°40.983 6.919675 3.293272 32.266156 26.89417
2003-03-27 09:59:45 51°18.326 2°40.657 6.880403 3.29422 32.255 24.939024
2003-03-27 10:00:45 51°18.237 2°40.326 6.892266 3.29601 32.275228 28.242546
2003-03-27 10:01:45 51°18.15 2°39.997 6.913082 3.29917 32.305551 33.467503
2003-03-27 10:02:45 51°18.065 2°39.671 6.91013 3.297379 32.259125 26.253691
2003-03-27 10:03:45 51°17.979 2°39.341 6.896745 3.29443 32.241416 28.040289
2003-03-27 10:04:45 51°17.893 2°39.01 6.918691 3.29264 32.221201 29.523503
2003-03-27 10:05:45 51°17.803 2°38.684 6.979568 3.304224 32.311927 29.422375
2003-03-27 10:06:45 51°17.71 2°38.361 6.975734 3.307594 32.31988 29.793178
2003-03-27 10:07:45 51°17.604 2°38.048 6.983304 3.306857 32.303964 29.523503
2003-03-27 10:08:45 51°17.483 2°37.749 6.988857 3.309279 32.32544 27.43352
2003-03-27 10:09:45 51°17.337 2°37.473 6.995688 3.31286 32.363429 31.512358
2003-03-27 10:10:45 51°17.163 2°37.256 7.016126 3.314018 32.364861 31.680905
2003-03-27 10:11:45 51°16.997 2°37.122 7.047164 3.317704 32.381747 31.613486
2003-03-27 10:12:45 51°16.847 2°37.03 7.075291 3.321601 32.392962 32.557349
2003-03-27 10:13:45 51°16.757 2°36.954 7.240858 3.327498 32.418654 41.490341
2003-03-27 10:14:45 51°16.693 2°36.926 7.303532 3.341504 32.42182 37.411503
2003-03-27 10:15:45 51°16.68 2°36.931 7.322259 3.347507 32.442233 38.321657
2003-03-27 10:16:45 51°16.678 2°36.939 7.327783 3.348771 32.447148 45.097247
2003-03-27 10:17:45 51°16.656 2°36.967 7.345476 3.350035 32.444184 41.658888
2003-03-27 10:18:45 51°16.613 2°37.002 7.344988 3.351825 32.458691 36.029418
2003-03-27 10:19:45 51°16.568 2°37.013 7.319766 3.350772 32.45368 39.130683
2003-03-27 10:20:45 51°16.527 2°37.005 7.338488 3.348666 32.442864 40.95099
2003-03-27 10:21:45 51°16.489 2°36.995 7.350607 3.350772 32.448166 37.849725
2003-03-27 10:22:45 51°16.447 2°36.978 7.350412 3.3533 32.467439 37.141828
2003-03-27 10:23:45 51°16.405 2°36.951 7.35051 3.35488 32.478891 36.636187
2003-03-27 10:24:45 51°16.367 2°36.919 7.341664 3.355406 32.491641 33.669759
2003-03-27 10:25:45 51°16.332 2°36.893 7.358181 3.356354 32.504189 30.973007
2003-03-27 10:26:45 51°16.298 2°36.869 7.367024 3.358355 32.512275 30.163982
2003-03-27 10:27:45 51°16.263 2°36.847 7.352758 3.360567 32.532084 35.456358
2003-03-27 10:28:45 51°16.228 2°36.825 7.416103 3.35825 32.485141 33.905725
2003-03-27 10:29:45 51°16.192 2°36.805 7.421521 3.354879 32.419122 32.422512
2003-03-27 10:30:45 51°16.157 2°36.783 7.427671 3.352772 32.393407 32.827024
2003-03-27 10:31:45 51°16.122 2°36.762 7.433479 3.353088 32.391304 31.95058
2003-03-27 10:32:45 51°16.086 2°36.74 7.430941 3.352667 32.382087 33.568631
2003-03-27 10:33:45 51°16.052 2°36.715 7.437042 3.352246 32.376007 34.815879
2003-03-27 10:34:45 51°16.018 2°36.689 7.447191 3.352351 32.372435 35.388939
2003-03-27 10:35:45 51°15.985 2°36.662 7.454412 3.353193 32.372061 34.78217
2003-03-27 10:36:45 51°15.952 2°36.635 7.46812 3.354457 32.378548 34.074272
2003-03-27 10:37:45 51°15.916 2°36.613 7.472266 3.35551 32.377298 31.141554
2003-03-27 10:38:45 51°15.877 2°36.589 7.475875 3.35688 32.390388 31.242683
2003-03-27 10:39:45 51°15.837 2°36.551 7.484019 3.359407 32.411178 34.647332
2003-03-27 10:40:45 51°15.798 2°36.506 7.492308 3.361303 32.426767 39.332939
2003-03-27 10:41:45 51°15.762 2°36.454 7.511418 3.363094 32.441226 37.950853
2003-03-27 10:42:45 51°15.723 2°36.403 7.517657 3.364252 32.42934 36.602477
2003-03-27 10:43:45 51°15.688 2°36.349 7.526088 3.364041 32.424739 37.782306
2003-03-27 10:44:45 51°15.649 2°36.304 7.514245 3.365095 32.43287 36.636187
2003-03-27 10:45:45 51°15.608 2°36.264 7.518876 3.364252 32.431688 37.209247
2003-03-27 10:46:45 51°15.566 2°36.226 7.515659 3.364357 32.427335 38.15311
2003-03-27 10:47:45 51°15.523 2°36.192 7.51059 3.362146 32.412291 38.557623
2003-03-27 10:48:45 51°15.48 2°36.145 7.505715 3.360566 32.396178 41.760016
2003-03-27 10:49:45 51°15.447 2°36.094 7.514099 3.360039 32.389765 47.760289
2003-03-27 10:50:45 51°15.432 2°36.05 7.52409 3.363199 32.417294 51.636871
2003-03-27 10:51:45 51°15.419 2°36.007 7.52526 3.364568 32.429587 53.288631
2003-03-27 10:52:45 51°15.4 2°35.971 7.541096 3.365411 32.434683 55.648289
2003-03-27 10:53:45 51°15.367 2°35.936 7.544409 3.367517 32.439202 45.838853
2003-03-27 10:54:45 51°15.322 2°35.894 7.565403 3.370045 32.460738 46.04111
2003-03-27 10:55:45 51°15.277 2°35.851 7.582155 3.371203 32.445737 51.400905
2003-03-27 10:56:45 51°15.232 2°35.804 7.579574 3.373731 32.471165 55.04152
2003-03-27 10:57:45 51°15.188 2°35.754 7.630923 3.379208 32.52104 59.01923
2003-03-27 10:58:45 51°15.145 2°35.7 7.617542 3.383632 32.538506 58.614717
2003-03-27 10:59:45 51°15.104 2°35.644 7.630339 3.385949 32.565584 55.547161
2003-03-27 11:00:45 51°15.064 2°35.584 7.653834 3.390162 32.587814 53.861691
2003-03-27 11:01:45 51°15.028 2°35.52 7.643182 3.39269 32.609292 57.165212
2003-03-27 11:02:45 51°14.994 2°35.451 7.671049 3.39585 32.646138 56.524734
2003-03-27 11:03:45 51°14.956 2°35.382 7.665894 3.399958 32.671118 50.726717
2003-03-27 11:04:45 51°14.915 2°35.327 7.679557 3.402802 32.690453 45.299503
2003-03-27 11:05:45 51°14.871 2°35.277 7.665214 3.406383 32.741225 41.422922
2003-03-27 11:06:45 51°14.83 2°35.221 7.719652 3.410702 32.782575 48.973828
2003-03-27 11:07:45 51°14.788 2°35.161 7.742289 3.415968 32.785213 46.04111
2003-03-27 11:08:45 51°14.745 2°35.102 7.768365 3.420498 32.815372 42.805007
2003-03-27 11:09:45 51°14.702 2°35.041 7.78084 3.425448 32.845274 41.625178
2003-03-27 11:10:45 51°14.66 2°34.98 7.806027 3.42903 32.870018 43.040973
2003-03-27 11:11:45 51°14.617 2°34.922 7.830379 3.43556 32.911168 41.355503
2003-03-27 11:12:45 51°14.574 2°34.862 7.839788 3.443566 32.9845 42.130819
2003-03-27 11:13:45 51°14.533 2°34.801 7.877021 3.44936 33.038231 44.9287
2003-03-27 11:14:45 51°14.493 2°34.736 7.846043 3.452942 33.077911 46.142238
2003-03-27 11:15:45 51°14.455 2°34.669 7.906287 3.455891 33.09347 41.456631
2003-03-27 11:16:45 51°14.417 2°34.6 7.883612 3.459157 33.113961 40.040836
2003-03-27 11:17:45 51°14.376 2°34.535 7.89592 3.462212 33.129828 38.355366
2003-03-27 11:18:45 51°14.336 2°34.473 7.901249 3.462844 33.127847 37.748597
2003-03-27 11:19:45 51°14.295 2°34.415 7.89936 3.469586 33.193158 36.332802
2003-03-27 11:20:45 51°14.25 2°34.364 7.908952 3.469375 33.190127 33.0967
2003-03-27 11:21:45 51°14.204 2°34.311 7.911713 3.47559 33.254595 33.433794
2003-03-27 11:22:45 51°14.161 2°34.254 7.909824 3.480963 33.308528 34.310238
2003-03-27 11:23:45 51°14.123 2°34.192 7.889911 3.484334 33.344366 37.950853
2003-03-27 11:24:45 51°14.082 2°34.121 7.879783 3.487179 33.388149 38.018272
2003-03-27 11:25:45 51°14.05 2°34.046 7.842746 3.491077 33.454369 41.119537
2003-03-27 11:26:45 51°14.03 2°33.972 7.796371 3.495186 33.528554 44.9287
2003-03-27 11:27:45 51°14.023 2°33.908 7.760014 3.496873 33.614847 49.176084
2003-03-27 11:28:45 51°14.023 2°33.849 7.729174 3.496768 33.625809 48.063674
2003-03-27 11:29:45 51°14.038 2°33.78 7.703034 3.496136 33.64406 50.591879
2003-03-27 11:30:45 51°14.084 2°33.727 7.672459 3.494872 33.649919 53.018956
2003-03-27 11:31:45 51°14.13 2°33.792 7.93249 3.493397 33.641409 44.490477
2003-03-27 11:32:45 51°14.142 2°34.018 7.864176 3.489496 33.380144 30.096563
2003-03-27 11:33:45 51°14.162 2°34.364 7.862188 3.493711 33.487212 43.175811
2003-03-27 11:34:45 51°14.181 2°34.722 7.879783 3.490445 33.447639 40.040836
2003-03-27 11:35:45 51°14.191 2°35.081 7.871883 3.484651 33.367626 40.681315
2003-03-27 11:36:45 51°14.198 2°35.437 7.89936 3.474959 33.261367 43.20952
2003-03-27 11:37:45 51°14.21 2°35.789 7.726502 3.492658 33.538494 66.469007
2003-03-27 11:38:45 51°14.218 2°36.141 7.707067 3.486127 33.533038 68.154477
2003-03-27 11:39:45 51°14.224 2°36.489 7.705512 3.488972 33.566661 68.154477
2003-03-27 11:40:45 51°14.229 2°36.837 7.947791 3.481702 33.428024 68.323024
2003-03-27 11:41:45 51°14.234 2°37.182 7.727765 3.437562 32.902553 68.053349
2003-03-27 11:42:45 51°14.241 2°37.528 7.646976 3.407752 32.718884 68.053349
2003-03-27 11:43:45 51°14.249 2°37.875 7.783316 3.398905 32.670875 68.053349
2003-03-27 11:44:45 51°14.252 2°38.224 7.780064 3.389845 32.455713 63.805965
2003-03-27 11:45:45 51°14.247 2°38.571 7.666381 3.368674 32.276487 54.198785
2003-03-27 11:46:45 51°14.24 2°38.919 7.613016 3.356772 32.220315 59.423742
2003-03-27 11:47:45 51°14.233 2°39.268 7.57787 3.347504 32.183533 62.895811
2003-03-27 11:48:45 51°14.219 2°39.617 7.49421 3.33929 32.14007 62.525007
2003-03-27 11:49:45 51°14.206 2°39.966 7.363409 3.330865 32.114443 55.547161
2003-03-27 11:50:45 51°14.191 2°40.317 7.353002 3.3157 32.053082 55.61458
2003-03-27 11:51:45 51°14.174 2°40.669 7.384414 3.310644 31.998131 45.737725
2003-03-27 11:52:45 51°14.158 2°41.022 7.414053 3.313382 31.996437 47.322067
2003-03-27 11:53:45 51°14.142 2°41.37 7.418593 3.314014 31.995451 44.254512
2003-03-27 11:54:45 51°14.122 2°41.631 7.425426 3.316225 31.995104 40.141965
2003-03-27 11:55:45 51°14.106 2°41.808 7.416054 3.31433 31.983341 43.445486
2003-03-27 11:56:45 51°14.106 2°41.888 7.42406 3.312223 31.960034 38.861007
2003-03-27 11:57:45 51°14.109 2°41.912 7.418983 3.313066 31.970594 45.569178
2003-03-27 11:58:45 51°14.113 2°41.929 7.427281 3.312645 31.962219 48.973828
2003-03-27 11:59:45 51°14.13 2°41.988 7.42611 3.312539 31.957999 45.46805
2003-03-27 12:00:45 51°14.147 2°42.066 7.425963 3.311591 31.947088 36.568768
2003-03-27 12:01:45 51°14.153 2°42.152 7.43265 3.310327 31.928936 32.725896
2003-03-27 12:02:45 51°14.162 2°42.232 7.413858 3.309064 31.920058 30.197691
2003-03-27 12:03:45 51°14.175 2°42.306 7.483141 3.306536 31.899978 27.804324
2003-03-27 12:04:45 51°14.194 2°42.376 7.434407 3.306536 31.879145 27.298683
2003-03-27 12:05:45 51°14.221 2°42.447 7.427037 3.305062 31.874952 27.298683
2003-03-27 12:06:45 51°14.244 2°42.516 7.477289 3.304324 31.867842 26.590785
2003-03-27 12:07:45 51°14.271 2°42.588 7.416103 3.303271 31.851959 26.86046
2003-03-27 12:08:45 51°14.3 2°42.668 7.434065 3.302534 31.857954 27.770614
2003-03-27 12:09:45 51°14.324 2°42.737 7.423132 3.302218 31.839162 23.792905
2003-03-27 12:10:45 51°14.354 2°42.806 7.429965 3.301691 31.837386 23.253554
2003-03-27 12:11:45 51°14.388 2°42.871 7.421473 3.300112 31.823581 23.860324
2003-03-27 12:12:45 51°14.416 2°42.943 7.415566 3.298321 31.811373 24.703059
2003-03-27 12:13:45 51°14.436 2°43.019 7.418007 3.297374 31.80509 24.264836
2003-03-27 12:14:45 51°14.461 2°43.096 7.401261 3.298216 31.817949 23.725486
2003-03-27 12:15:45 51°14.49 2°43.168 7.411758 3.297268 31.805504 23.017589
2003-03-27 12:16:45 51°14.519 2°43.238 7.408585 3.29295 31.758575 22.478238
2003-03-27 12:17:45 51°14.545 2°43.313 7.383486 3.292951 31.769342 23.961452
2003-03-27 12:18:45 51°14.567 2°43.391 7.361504 3.29274 31.788645 23.792905
2003-03-27 12:19:45 51°14.598 2°43.458 7.358279 3.290318 31.776591 22.849042
2003-03-27 12:20:45 51°14.632 2°43.528 7.357644 3.288844 31.766972 22.680494
2003-03-27 12:21:45 51°14.656 2°43.602 7.333942 3.287369 31.751959 22.983879
2003-03-27 12:22:45 51°14.682 2°43.675 7.331889 3.284842 31.747234 21.770341
2003-03-27 12:23:45 51°14.719 2°43.739 7.322992 3.282315 31.721703 20.354546
2003-03-27 12:24:45 51°14.757 2°43.799 7.341664 3.279892 31.694994 19.612939
2003-03-27 12:25:45 51°14.791 2°43.865 7.340834 3.281261 31.701192 20.725349
2003-03-27 12:26:45 51°14.824 2°43.928 7.323432 3.280314 31.695659 18.635366
2003-03-27 12:27:45 51°14.85 2°44.003 7.30407 3.278734 31.694897 20.65793
2003-03-27 12:28:45 51°14.869 2°44.082 7.289154 3.277892 31.698957 19.714067
2003-03-27 12:29:45 51°14.899 2°44.153 7.265426 3.276944 31.706515 19.511811
2003-03-27 12:30:45 51°14.908 2°44.229 7.253046 3.269994 31.650469 18.736494
2003-03-27 12:31:45 51°14.898 2°44.277 7.24448 3.268309 31.645483 18.331982
2003-03-27 12:32:45 51°14.876 2°44.307 8.327819 3.267677 31.643324 17.3207
2003-03-27 12:33:45 51°14.853 2°44.333 7.234201 3.266729 31.630076 19.848905
2003-03-27 12:34:45 51°14.822 2°44.366 7.22201 3.26357 31.610031 18.3994
2003-03-27 12:35:45 51°14.769 2°44.382 7.201735 3.260727 31.596443 19.882614
2003-03-27 12:36:45 51°14.712 2°44.334 7.195417 3.25841 31.582343 21.197281
2003-03-27 12:37:45 51°14.663 2°44.265 7.194633 3.257673 31.578275 22.174853
2003-03-27 12:38:45 51°14.61 2°44.225 7.229403 3.257673 31.574427 18.601657
2003-03-27 12:39:45 51°14.553 2°44.202 7.161559 3.256304 31.577426 19.680358
2003-03-27 12:40:45 51°14.495 2°44.176 7.161559 3.25483 31.573906 21.298409
2003-03-27 12:41:45 51°14.438 2°44.145 7.193996 3.255357 31.569554 21.062443
2003-03-27 12:42:45 51°14.378 2°44.114 7.213293 3.258937 31.584919 19.073589
2003-03-27 12:43:45 51°14.313 2°44.07 7.200952 3.26157 31.603948 21.433247
2003-03-27 12:44:45 51°14.253 2°44.003 7.195759 3.261148 31.614058 27.905452
2003-03-27 12:45:45 51°14.201 2°43.917 7.212265 3.261886 31.623517 30.163982
2003-03-27 12:46:45 51°14.164 2°43.813 7.214763 3.264518 31.636377 29.826888
2003-03-27 12:47:45 51°14.133 2°43.704 7.217309 3.265045 31.64126 31.647195
2003-03-27 12:48:45 51°14.102 2°43.593 7.23283 3.265887 31.643369 31.849452
2003-03-27 12:49:45 51°14.073 2°43.482 7.252458 3.267572 31.647586 32.152836
2003-03-27 12:50:45 51°14.041 2°43.371 7.254612 3.269467 31.65098 29.826888
2003-03-27 12:51:45 51°14.005 2°43.267 7.263078 3.270415 31.655756 27.062717
2003-03-27 12:52:45 51°13.968 2°43.168 7.27893 3.271258 31.660172 29.725759
2003-03-27 12:53:45 51°13.935 2°43.048 7.280642 3.273574 31.673466 31.208973
2003-03-27 12:54:45 51°13.9 2°42.943 7.292822 3.274838 31.685474 31.613486
2003-03-27 12:55:45 51°13.853 2°42.843 7.292284 3.275786 31.684854 26.826751
2003-03-27 12:56:45 51°13.808 2°42.749 7.31385 3.277365 31.697164 29.69205
2003-03-27 12:57:45 51°13.764 2°42.657 7.315903 3.279366 31.703206 31.040426
2003-03-27 12:58:45 51°13.721 2°42.566 7.346112 3.281156 31.706988 30.501076
2003-03-27 12:59:45 51°13.678 2°42.474 7.378162 3.284105 31.719323 30.770751
2003-03-27 13:00:45 51°13.633 2°42.375 7.373815 3.28758 31.729591 30.737042
2003-03-27 13:01:45 51°13.591 2°42.282 7.388907 3.288844 31.745416 30.534785
2003-03-27 13:02:45 51°13.551 2°42.188 7.405607 3.286421 31.705677 28.478512
2003-03-27 13:03:45 51°13.514 2°42.086 7.411758 3.292424 31.759097 32.456221
2003-03-27 13:04:45 51°13.493 2°41.98 7.421961 3.294214 31.769777 31.175264
2003-03-27 13:05:45 51°13.482 2°41.889 7.421326 3.295267 31.781034 30.366238
2003-03-27 13:06:45 51°13.477 2°41.81 7.424889 3.29632 31.786137 30.433657
2003-03-27 13:07:45 51°13.475 2°41.713 7.402531 3.288316 31.699074 31.512358
2003-03-27 13:08:45 51°13.398 2°41.481 7.38246 3.296005 31.798921 31.984289
2003-03-27 13:09:45 51°13.284 2°41.198 7.438847 3.29769 31.820022 37.748597
2003-03-27 13:10:45 51°13.169 2°40.907 7.455388 3.302218 31.823764 40.243093
2003-03-27 13:11:45 51°13.053 2°40.614 7.45451 3.306009 31.861187 46.074819
2003-03-27 13:12:45 51°12.938 2°40.324 7.463096 3.31138 31.910859 58.345042
2003-03-27 13:13:45 51°12.822 2°40.031 7.524529 3.318121 31.972058 66.199332
2003-03-27 13:14:45 51°12.707 2°39.738 7.75812 3.33297 32.028607 61.985657
2003-03-27 13:15:45 51°12.578 2°39.476 7.825577 3.353295 32.034778 60.030512
2003-03-27 13:16:45 51°12.43 2°39.297 7.851765 3.35835 32.072247 58.513589
2003-03-27 13:17:45 51°12.3 2°39.144 8.032457 3.368883 32.143133 63.873383
2003-03-27 13:18:45 51°12.196 2°39.016 8.076971 3.383627 32.151213 54.232494
2003-03-27 13:19:45 51°12.1 2°38.898 8.098178 3.386155 32.149623 55.816836
2003-03-27 13:20:45 51°12.004 2°38.777 8.13922 3.386365 32.125935 57.064084
2003-03-27 13:21:45 51°11.913 2°38.591 8.173723 3.396266 32.193549 58.311332
2003-03-27 13:22:45 51°11.821 2°38.347 8.203964 3.405219 32.258723 59.659708
2003-03-27 13:23:45 51°11.708 2°38.056 8.216066 3.413751 32.323211 55.783127
2003-03-27 13:24:45 51°11.598 2°37.745 8.221466 3.423126 32.427109 57.704563
2003-03-27 13:25:45 51°11.48 2°37.443 8.224792 3.422389 32.401746 55.783127
2003-03-27 13:26:45 51°11.347 2°37.164 8.213414 3.432606 32.510677 48.704153
2003-03-27 13:27:45 51°11.212 2°36.885 8.212064 3.436399 32.563627 52.648153
2003-03-27 13:28:45 51°11.064 2°36.609 8.237709 3.438505 32.56117 47.760289
2003-03-27 13:29:45 51°10.895 2°36.368 8.278229 3.447775 32.641687 39.198101
2003-03-27 13:30:45 51°10.708 2°36.181 8.272063 3.473795 32.87734 33.197828
2003-03-27 13:31:45 51°10.515 2°36.022 8.127731 3.49434 33.186486 52.176221
2003-03-27 13:32:45 51°10.324 2°35.861 8.116191 3.508984 33.399502 68.154477
2003-03-27 13:33:45 51°10.136 2°35.703 8.090691 3.510354 33.448863 68.120768
2003-03-27 13:34:45 51°9.975 2°35.556 8.165666 3.508036 33.408472 68.323024
2003-03-27 13:35:45 51°9.82 2°35.414 8.158235 3.509511 33.374235 59.727127
2003-03-27 13:36:45 51°9.693 2°35.304 8.136999 3.511829 33.401892 61.715982
2003-03-27 13:37:45 51°9.594 2°35.256 8.163446 3.509089 33.385587 49.041247
2003-03-27 13:38:45 51°9.515 2°35.211 8.172517 3.511617 33.373595 63.805965
2003-03-27 13:39:45 51°9.444 2°35.161 8.218525 3.509405 33.346287 68.087059
2003-03-27 13:40:45 51°9.38 2°35.134 8.201698 3.50498 33.275965 68.221896
2003-03-27 13:41:45 51°9.32 2°35.116 8.172999 3.502873 33.278116 68.188187
2003-03-27 13:42:45 51°9.284 2°35.099 8.147763 3.496658 33.230588 68.188187
2003-03-27 13:43:45 51°9.265 2°35.066 8.116433 3.504138 33.336402 68.120768
2003-03-27 13:44:45 51°9.25 2°35.048 8.137144 3.505086 33.358276 68.120768
2003-03-27 13:45:45 51°9.218 2°35.064 8.101366 3.510038 33.413813 68.120768
2003-03-27 13:46:45 51°9.163 2°35.055 8.180091 3.506982 33.368053 68.154477
2003-03-27 13:47:45 51°9.103 2°35.001 8.17956 3.497606 33.230377 68.087059
2003-03-27 13:48:45 51°9.06 2°34.927 8.201022 3.501293 33.267729 68.087059
2003-03-27 13:49:45 51°9.022 2°34.851 8.192149 3.500766 33.248013 68.053349
2003-03-27 13:50:45 51°8.982 2°34.782 8.170249 3.50045 33.251753 68.087059
2003-03-27 13:51:45 51°8.938 2°34.707 8.186168 3.498238 33.227618 68.053349
2003-03-27 13:52:45 51°8.897 2°34.631 8.184528 3.500977 33.263606 68.053349
2003-03-27 13:53:45 51°8.857 2°34.552 8.249275 3.501609 33.251404 68.087059
2003-03-27 13:54:45 51°8.813 2°34.47 8.330418 3.509931 33.264542 68.01964
2003-03-27 13:55:45 51°8.77 2°34.389 8.39223 3.517199 33.28147 68.087059
2003-03-27 13:56:45 51°8.73 2°34.309 8.482076 3.521308 33.277694 68.120768
2003-03-27 13:57:45 51°8.687 2°34.228 8.61134 3.524994 33.180017 68.053349
2003-03-27 13:58:45 51°8.642 2°34.146 8.68375 3.531209 33.153554 68.087059
2003-03-27 13:59:45 51°8.601 2°34.062 8.661154 3.537319 33.180184 68.087059
2003-03-27 14:00:45 51°8.557 2°33.981 8.61915 3.538583 33.209608 68.120768
2003-03-27 14:01:45 51°8.513 2°33.899 8.573907 3.537109 33.23605 68.087059
2003-03-27 14:02:45 51°8.471 2°33.816 8.54993 3.537847 33.302044 68.120768
2003-03-27 14:03:45 51°8.429 2°33.737 8.550793 3.542904 33.361201 68.120768
2003-03-27 14:04:45 51°8.385 2°33.653 8.514668 3.541746 33.350631 68.154477
2003-03-27 14:05:45 51°8.342 2°33.572 8.518315 3.546171 33.418838 68.154477
2003-03-27 14:06:45 51°8.302 2°33.492 8.522298 3.547962 33.438384 68.154477
2003-03-27 14:07:45 51°8.258 2°33.413 8.513996 3.549226 33.45398 63.704836
2003-03-27 14:08:45 51°8.216 2°33.335 8.499934 3.551334 33.470576 65.659982
2003-03-27 14:09:45 51°8.175 2°33.254 8.505838 3.552387 33.506711 65.019503
2003-03-27 14:10:45 51°8.134 2°33.172 8.510061 3.554073 33.519678 60.502443
2003-03-27 14:11:45 51°8.089 2°33.094 8.456912 3.553441 33.549196 62.120494
2003-03-27 14:12:45 51°8.052 2°33.008 8.429096 3.553442 33.568876 66.33417
2003-03-27 14:13:45 51°8.024 2°32.914 8.422801 3.553126 33.582892 63.435161
2003-03-27 14:14:45 51°7.999 2°32.816 8.41862 3.552704 33.581618 63.50258
2003-03-27 14:15:45 51°7.985 2°32.719 8.395884 3.54986 33.553301 64.412734
2003-03-27 14:16:45 51°7.977 2°32.624 8.365925 3.549333 33.57536 68.154477
2003-03-27 14:17:45 51°7.971 2°32.543 8.405258 3.546383 33.558535 68.154477
2003-03-27 14:18:45 51°7.969 2°32.473 8.336674 3.543328 33.538224 68.154477
2003-03-27 14:19:45 51°7.969 2°32.404 8.296336 3.53943 33.536656 68.087059
2003-03-27 14:20:45 51°7.974 2°32.336 8.279625 3.536586 33.526437 68.120768
2003-03-27 14:21:45 51°7.986 2°32.252 8.246962 3.534584 33.525888 68.120768
2003-03-27 14:22:45 51°8.005 2°32.172 8.21732 3.532793 33.543397 68.120768
2003-03-27 14:23:45 51°8.028 2°32.101 8.208593 3.531213 33.548107 68.120768
2003-03-27 14:24:45 51°8.061 2°32.047 8.197454 3.531319 33.552391 68.120768
2003-03-27 14:25:45 51°8.097 2°32.014 8.178933 3.532794 33.587813 68.087059
2003-03-27 14:26:45 51°8.134 2°32.012 8.162336 3.533005 33.608319 68.087059
2003-03-27 14:27:45 51°8.169 2°32.028 8.154423 3.531846 33.599245 68.053349
2003-03-27 14:28:45 51°8.205 2°32.047 8.159441 3.531214 33.596535 68.120768
2003-03-27 14:29:45 51°8.235 2°32.075 8.137096 3.530898 33.595578 68.120768
2003-03-27 14:30:45 51°8.264 2°32.109 8.115757 3.527105 33.585676 68.120768
2003-03-27 14:31:45 51°8.301 2°32.133 8.114791 3.527632 33.60399 68.154477
2003-03-27 14:32:45 51°8.334 2°32.167 8.095811 3.526895 33.597774 68.120768
2003-03-27 14:33:45 51°8.369 2°32.189 8.044108 3.525631 33.625038 68.154477
2003-03-27 14:34:45 51°8.411 2°32.201 8.07615 3.523103 33.609403 68.154477
2003-03-27 14:35:45 51°8.449 2°32.227 8.069627 3.523629 33.596642 68.087059
2003-03-27 14:36:45 51°8.49 2°32.248 8.078807 3.524156 33.603022 68.154477
2003-03-27 14:37:45 51°8.53 2°32.269 8.099386 3.524472 33.599993 68.154477
2003-03-27 14:38:45 51°8.571 2°32.286 8.116143 3.524472 33.583262 68.120768
2003-03-27 14:39:45 51°8.61 2°32.31 8.123144 3.523945 33.552226 68.120768
2003-03-27 14:40:45 51°8.633 2°32.355 8.148342 3.521627 33.526905 68.120768
2003-03-27 14:41:45 51°8.65 2°32.406 8.156691 3.520784 33.497355 68.120768
2003-03-27 14:42:45 51°8.663 2°32.461 8.166872 3.516043 33.439313 68.188187
2003-03-27 14:43:45 51°8.68 2°32.515 8.164604 3.520151 33.478783 68.255606
2003-03-27 14:44:45 51°8.697 2°32.562 8.15698 3.520046 33.477669 68.221896
2003-03-27 14:45:45 51°8.71 2°32.616 8.164942 3.518782 33.469851 68.154477
2003-03-27 14:46:45 51°8.723 2°32.67 8.159152 3.519203 33.475098 68.390443
2003-03-27 14:47:45 51°8.741 2°32.72 8.157897 3.518571 33.471585 68.221896
2003-03-27 14:48:45 51°8.756 2°32.769 8.162192 3.519414 33.477325 68.188187
2003-03-27 14:49:46 51°8.769 2°32.822 8.152734 3.518571 33.470792 68.154477
2003-03-27 14:50:45 51°8.781 2°32.877 8.147908 3.518466 33.476018 68.154477
2003-03-27 14:51:45 51°8.778 2°32.93 8.143805 3.517202 33.465027 68.154477
2003-03-27 14:52:45 51°8.761 2°32.959 8.157222 3.515305 33.440225 68.120768
2003-03-27 14:53:45 51°8.744 2°32.977 8.137337 3.517096 33.462328 68.120768
2003-03-27 14:54:45 51°8.726 2°32.989 8.127538 3.51952 33.504611 68.120768
2003-03-27 14:55:45 51°8.709 2°33.066 8.181682 3.513093 33.400232 68.120768
2003-03-27 14:56:45 51°8.696 2°33.265 8.167161 3.506139 33.318897 68.087059
2003-03-27 14:57:45 51°8.747 2°33.53 8.152589 3.504243 33.317788 68.087059
2003-03-27 14:58:45 51°8.851 2°33.816 8.171938 3.503611 33.300864 68.053349
2003-03-27 14:59:45 51°8.928 2°34.114 8.169236 3.507298 33.342176 68.087059
2003-03-27 15:00:45 51°8.992 2°34.424 8.185541 3.505086 33.3125 68.087059
2003-03-27 15:01:45 51°9.056 2°34.736 8.166003 3.50203 33.275515 68.087059
2003-03-27 15:02:45 51°9.121 2°35.049 8.156256 3.498343 33.253107 68.087059
2003-03-27 15:03:45 51°9.186 2°35.358 8.223201 3.486965 33.12357 68.120768
2003-03-27 15:04:45 51°9.252 2°35.666 8.205941 3.475482 32.961104 68.087059
2003-03-27 15:05:45 51°9.319 2°35.974 8.212932 3.472953 32.941476 68.087059
2003-03-27 15:06:45 51°9.387 2°36.285 8.194175 3.467791 32.887879 68.053349
2003-03-27 15:07:45 51°9.454 2°36.594 8.170539 3.464631 32.874792 68.053349
2003-03-27 15:08:45 51°9.522 2°36.902 8.152734 3.459891 32.842704 68.120768
2003-03-27 15:09:45 51°9.59 2°37.211 8.154181 3.455256 32.811704 68.087059
2003-03-27 15:10:46 51°9.659 2°37.525 8.141102 3.446512 32.714103 68.053349
2003-03-27 15:11:45 51°9.727 2°37.827 8.116191 3.439138 32.64954 68.087059
2003-03-27 15:12:45 51°9.796 2°38.141 8.110976 3.434293 32.618554 68.01964
2003-03-27 15:13:45 51°9.865 2°38.452 8.104698 3.427025 32.549641 68.01964
2003-03-27 15:14:45 51°9.931 2°38.757 8.086102 3.419124 32.473289 67.98593
2003-03-27 15:15:45 51°10.001 2°39.064 8.072961 3.415859 32.458873 68.01964
2003-03-27 15:16:45 51°10.068 2°39.374 8.073251 3.406589 32.363436 68.053349
2003-03-27 15:17:45 51°10.135 2°39.686 8.062475 3.390473 32.19359 67.98593
2003-03-27 15:18:45 51°10.202 2°39.99 8.037002 3.383311 32.136438 68.01964
2003-03-27 15:19:45 51°10.268 2°40.295 8.058657 3.379203 32.115258 68.01964
2003-03-27 15:20:45 51°10.334 2°40.603 8.012244 3.372568 32.052158 68.01964
2003-03-27 15:21:45 51°10.399 2°40.915 7.995411 3.364036 31.974387 68.01964
2003-03-27 15:22:45 51°10.466 2°41.224 7.966378 3.35382 31.885651 68.01964
2003-03-27 15:23:45 51°10.545 2°41.519 7.946774 3.347184 31.840686 67.98593
2003-03-27 15:24:45 51°10.633 2°41.816 7.921885 3.336968 31.749565 68.01964
2003-03-27 15:25:46 51°10.717 2°42.12 7.897664 3.329806 31.694402 68.01964
2003-03-27 15:26:45 51°10.792 2°42.423 7.909194 3.322645 31.645985 68.053349
2003-03-27 15:27:45 51°10.862 2°42.731 7.847352 3.318116 31.620044 68.01964
2003-03-27 15:28:45 51°10.936 2°43.041 7.833338 3.310007 31.551715 68.053349
2003-03-27 15:29:46 51°11.011 2°43.36 7.819757 3.300107 31.456907 67.98593
2003-03-27 15:30:45 51°11.083 2°43.666 7.815876 3.29084 31.370264 68.053349
2003-03-27 15:31:45 51°11.157 2°43.974 7.804523 3.281362 31.276143 68.053349
2003-03-27 15:32:45 51°11.226 2°44.284 7.790984 3.272305 31.189461 68.053349
2003-03-27 15:33:45 51°11.295 2°44.598 7.774675 3.264302 31.119843 68.087059
2003-03-27 15:34:45 51°11.364 2°44.91 7.749331 3.25851 31.074294 68.053349
2003-03-27 15:35:45 51°11.431 2°45.222 7.72111 3.250717 31.014261 68.120768
2003-03-27 15:36:46 51°11.5 2°45.542 7.70595 3.245558 30.981261 68.120768
2003-03-27 15:37:45 51°11.564 2°45.851 7.707456 3.241345 30.940442 68.154477
2003-03-27 15:38:46 51°11.641 2°46.162 7.695647 3.237976 30.913715 68.120768
2003-03-27 15:39:46 51°11.724 2°46.466 7.717854 3.235448 30.889218 68.188187
2003-03-27 15:40:46 51°11.814 2°46.762 7.783316 3.234079 30.851071 65.626272
2003-03-27 15:41:46 51°11.904 2°47.058 7.791858 3.22576 30.719785 63.738546
2003-03-27 15:42:45 51°11.991 2°47.351 7.766471 3.221548 30.671707 62.120494
2003-03-27 15:43:45 51°12.095 2°47.633 7.787101 3.219547 30.663088 57.940529
2003-03-27 15:44:45 51°12.206 2°47.908 7.834744 3.216282 30.600113 51.400905
2003-03-27 15:45:45 51°12.306 2°48.189 7.903235 3.216703 30.559259 45.939982
2003-03-27 15:46:45 51°12.41 2°48.47 7.90464 3.208068 30.425626 42.265657
2003-03-27 15:47:45 51°12.513 2°48.759 7.904156 3.204698 30.390979 41.726306
2003-03-27 15:48:45 51°12.618 2°49.044 7.8824 3.199328 30.339678 44.726443
2003-03-27 15:49:45 51°12.722 2°49.334 7.892576 3.198065 30.338708 43.411777
2003-03-27 15:50:45 51°12.824 2°49.616 7.907111 3.199644 30.337209 40.647606
2003-03-27 15:51:45 51°12.926 2°49.907 7.894902 3.201118 30.354849 40.040836
2003-03-27 15:52:45 51°13.03 2°50.194 7.878087 3.19975 30.348438 37.141828
2003-03-27 15:53:45 51°13.134 2°50.483 7.893981 3.198907 30.357687 38.085691
2003-03-27 15:54:45 51°13.238 2°50.773 7.842794 3.200277 30.390913 38.928426
2003-03-27 15:55:45 51°13.338 2°51.069 7.822473 3.202804 30.42474 40.310512
2003-03-27 15:56:45 51°13.443 2°51.357 7.797487 3.201435 30.437964 38.625042
2003-03-27 15:57:45 51°13.545 2°51.651 7.801369 3.194696 30.376495 37.950853
2003-03-27 15:58:45 51°13.646 2°51.944 7.787344 3.193327 30.360638 36.265383
2003-03-27 15:59:45 51°13.75 2°52.238 7.764286 3.190906 30.351119 35.456358
2003-03-27 16:00:45 51°13.851 2°52.53 7.740297 3.18522 30.310849 25.646922
2003-03-27 16:01:45 51°13.951 2°52.82 7.734372 3.177007 30.239577 20.523093
2003-03-27 16:02:45 51°14.055 2°53.106 7.727377 3.170058 30.170732 17.017315
2003-03-27 16:03:45 51°14.152 2°53.398 7.715862 3.164899 30.125791 16.039742
2003-03-27 16:04:45 51°14.22 2°53.611 7.696327 3.160372 30.090373 16.107161
2003-03-27 16:05:45 51°14.258 2°53.724 7.685293 3.157529 30.074849 15.331845
2003-03-27 16:06:45 51°14.279 2°53.801 7.677709 3.156055 30.06725 15.06217
2003-03-27 16:07:45 51°14.293 2°53.853 7.689668 3.155318 30.060204 15.399264
2003-03-27 16:08:45 51°14.302 2°53.894 7.690203 3.155529 30.05305 14.657657
2003-03-27 16:09:45 51°14.308 2°53.924 7.691564 3.155213 30.051164 13.949759
2003-03-27 16:10:45 51°14.313 2°53.956 7.695161 3.155108 30.048613 13.410409
2003-03-27 16:11:45 51°14.316 2°53.987 7.692973 3.155213 30.049002 13.814922
2003-03-27 16:12:45 51°14.317 2°54.014 7.691564 3.154792 30.046727 13.949759
2003-03-27 16:13:45 51°14.319 2°54.037 7.705804 3.154792 30.042404 13.882341
2003-03-27 16:14:45 51°14.322 2°54.062 7.713773 3.155423 30.040414 13.309281
2003-03-27 16:15:45 51°14.322 2°54.086 7.726259 3.15616 30.038815 12.76993
2003-03-27 16:16:45 51°14.325 2°54.109 7.729271 3.156792 30.03611 12.871059
2003-03-27 16:17:45 51°14.328 2°54.13 7.732817 3.156897 30.037218 13.005896
2003-03-27 16:18:45 51°14.332 2°54.152 7.730826 3.157108 30.037995 13.107024
2003-03-27 16:19:45 51°14.336 2°54.18 7.732526 3.156897 30.03506 12.972187
2003-03-27 16:20:45 51°14.343 2°54.214 7.736218 3.156476 30.029188 12.567674
2003-03-27 16:21:45 51°14.363 2°54.28 7.737189 3.155844 30.017507 12.365418
2003-03-27 16:22:45 51°14.39 2°54.366 7.734663 3.154581 30.00565 12.938477
2003-03-27 16:23:45 51°14.411 2°54.462 7.729708 3.154054 30.003704 13.073315
2003-03-27 16:24:45 51°14.416 2°54.554 7.725191 3.153528 30.002476 13.814922
2003-03-27 16:25:45 51°14.405 2°54.647 7.694043 3.151843 29.99337 14.657657
2003-03-27 16:26:45 51°14.388 2°54.733 7.69098 3.149106 29.993307 14.219435
2003-03-27 16:27:45 51°14.374 2°54.822 8.040434 3.14679 29.933721 12.668802
2003-03-27 16:28:45 51°14.365 2°54.909 8.199962 2.917943 27.170852 13.3767
2003-03-27 16:29:45 51°14.354 2°55.011 8.26238 2.971933 27.713574 17.725212
2003-03-27 16:30:45 51°14.338 2°55.127 8.549307 2.953934 27.426946 19.680358
2003-03-27 16:31:45 51°14.286 2°55.224 9.226671 2.859641 26.390728 -0.71383
2003-03-27 16:32:45 51°14.239 2°55.314 9.448513 0.918481 6.270481 -0.646411
2003-03-27 16:33:45 51°14.18 2°55.387 9.637396 0.748609 5.053607 -0.646411